• Join FlightAware (Why Join?)
  • Login
  • US Flag 
01:03PM EST


 

Airport Tracker/Info


-or-


 

Live Flight TrackerFlight Track Log ✈ SWA750 ✈ 26-Apr-2013 ✈ KDEN - KLAX

Flight Track Log - Related Links

Times and Time Zones

All times are in EDT time to prevent confusion due to time zone crossing. See the SWA750 flight status page for this flight to view local times or setup timezone preferences in your user account.

Time Position Orientation Groundspeed Altitude Reporting Facility
EDT Latitude Longitude Course Direction KTS MPH feet Rate Location/Type
10:16PM 39.9500 -104.7167 244° Southwest 242 278 8,500  Level Denver TRACON
10:17PM 40.0189 -104.7431 344° North 245 282 12,300 2,340 Climbing Denver Center
10:18PM 40.0119 -104.8392 265° West 313 360 14,100 2,340 Climbing Denver Center
10:19PM 39.9447 -104.9603 234° Southwest 340 391 17,700 2,760 Climbing Denver Center
10:20PM 39.8831 -105.0667 233° Southwest 369 425 19,900 2,160 Climbing Denver Center
10:21PM 39.6362 -105.3313 244° Southwest  Level FlightAware Approximate
10:21PM 39.8317 -105.2014 244° Southwest 387 445 22,200  Level Denver Center
10:22PM 39.7878 -105.3144 243° Southwest 410 472 24,000 1,980 Climbing Denver Center
10:23PM 39.7250 -105.4772 243° Southwest 410 472 26,400 1,860 Climbing Denver Center
10:24PM 39.6703 -105.6203 244° Southwest 434 499 27,900 1,440 Climbing Denver Center
10:25PM 39.6136 -105.7658 243° Southwest 446 513 29,400 1,380 Climbing Denver Center
10:26PM 39.5581 -105.9144 244° Southwest 452 520 30,800 1,440 Climbing Denver Center
10:27PM 39.4997 -106.0658 244° Southwest 463 533 32,400 1,440 Climbing Denver Center
10:28PM 39.4417 -106.2153 243° Southwest 467 537 33,800 1,380 Climbing Denver Center
10:29PM 39.3764 -106.3808 243° Southwest 470 541 35,300 1,020 Climbing Denver Center
10:31PM 39.3100 -106.5497 243° Southwest 472 543 36,000 300 Climbing Denver Center
10:32PM 39.2519 -106.6933 242° Southwest 471 542 36,000  Level Denver Center
10:33PM 39.1786 -106.8208 233° Southwest 465 535 36,000  Level Denver Center
10:34PM 39.0831 -106.9678 230° Southwest 473 544 36,000  Level Denver Center
10:35PM 39.0033 -107.0917 230° Southwest 470 541 36,000  Level Denver Center
10:36PM 38.9103 -107.2364 230° Southwest 470 541 36,000  Level Denver Center
10:37PM 38.8306 -107.3592 230° Southwest 467 537 36,000  Level Denver Center
10:38PM 38.7369 -107.5017 230° Southwest 466 536 36,000  Level Denver Center
10:39PM 38.6564 -107.6253 230° Southwest 469 540 36,000  Level Denver Center
10:40PM 38.5769 -107.7467 230° Southwest 466 536 36,000  Level Denver Center
10:41PM 38.4836 -107.8872 230° Southwest 463 533 36,000  Level Denver Center
10:42PM 38.4042 -108.0078 230° Southwest 463 533 36,000  Level Denver Center
10:43PM 38.3108 -108.1478 230° Southwest 463 533 36,000  Level Denver Center
10:44PM 38.2314 -108.2669 230° Southwest 461 531 36,000  Level Denver Center
10:45PM 38.1519 -108.3864 230° Southwest 461 531 36,000  Level Denver Center
10:46PM 38.0447 -108.5503 230° Southwest 452 520 36,000  Level Denver Center
10:47PM 37.9856 -108.6847 241° Southwest 453 521 36,000  Level Denver Center
10:48PM 37.9150 -108.8414 240° Southwest 457 526 36,000  Level Denver Center
10:49PM 37.8539 -108.9736 240° Southwest 456 525 36,000  Level Denver Center
10:50PM 37.7833 -109.1294 240° Southwest 458 527 36,000  Level Denver Center
10:51PM 37.7225 -109.2631 240° Southwest 457 526 36,000  Level Denver Center
10:52PM 37.6617 -109.3942 240° Southwest 454 522 36,000  Level Denver Center
10:54PM 37.5803 -109.5703 240° Southwest 456 525 36,000  Level Denver Center
10:55PM 37.5103 -109.7225 240° Southwest 451 519 36,000  Level Denver Center
10:56PM 37.4494 -109.8522 239° Southwest 451 519 36,000  Level Denver Center
10:57PM 37.3889 -109.9808 239° Southwest 448 516 36,000  Level Denver Center
10:58PM 37.3200 -110.1283 240° Southwest 438 504 36,000  Level Denver Center
10:59PM 37.2642 -110.2447 239° Southwest 433 498 36,000  Level Denver Center
11:00PM 37.2153 -110.3494 240° Southwest 434 499 36,000  Level Denver Center
11:01PM 37.1294 -110.5300 239° Southwest 431 496 36,000  Level Denver Center
11:02PM 37.0678 -110.6594 239° Southwest 433 498 36,000  Level Denver Center
11:03PM 37.0047 -110.7903 239° Southwest 438 504 36,000  Level Denver Center
11:04PM 36.9428 -110.9192 239° Southwest 434 499 36,000  Level Denver Center
11:05PM 36.8797 -111.0483 239° Southwest 435 501 36,000  Level Denver Center
11:06PM 36.8292 -111.1519 239° Southwest 436 502 36,000  Level Denver Center
11:07PM 36.7539 -111.3075 239° Southwest 435 501 36,000  Level Denver Center
11:08PM 36.6908 -111.4344 238° Southwest 433 498 36,000  Level Denver Center
11:09PM 36.6181 -111.5867 239° Southwest 428 493 36,000  Level Denver Center
11:10PM 36.5522 -111.7181 238° Southwest 438 504 36,000  Level Denver Center
11:11PM 36.4853 -111.8511 238° Southwest 448 516 36,000  Level Denver Center
11:11PM 36.4583 -111.9053 238° Southwest 450 518 36,000  Level Los Angeles Center
11:13PM 36.3944 -112.0367 239° Southwest 446 513 36,000  Level Los Angeles Center
11:14PM 36.3289 -112.1675 238° Southwest 445 512 36,000  Level Los Angeles Center
11:15PM 36.2492 -112.3247 238° Southwest 448 516 36,000  Level Los Angeles Center
11:16PM 36.1819 -112.4567 238° Southwest 451 519 36,000  Level Los Angeles Center
11:17PM 36.1164 -112.5886 238° Southwest 451 519 36,000  Level Los Angeles Center
11:18PM 36.0494 -112.7203 238° Southwest 451 519 36,000  Level Los Angeles Center
11:19PM 35.9831 -112.8486 237° Southwest 445 512 36,000 -120 Level Los Angeles Center
11:20PM 35.9203 -112.9703 238° Southwest 446 513 35,800 -720 Descending Los Angeles Center
11:21PM 35.8436 -113.1222 238° Southwest 440 506 34,600 -840 Descending Los Angeles Center
11:22PM 35.7647 -113.2758 238° Southwest 445 512 34,000 -300 Descending Los Angeles Center
11:23PM 35.6994 -113.4022 238° Southwest 444 511 34,000  Level Los Angeles Center
11:24PM 35.6336 -113.5264 237° Southwest 440 506 34,000  Level Los Angeles Center
11:25PM 35.5775 -113.6592 243° Southwest 444 511 34,000  Level Los Angeles Center
11:26PM 35.5133 -113.8200 244° Southwest 442 509 34,000  Level Los Angeles Center
11:27PM 35.4581 -113.9556 243° Southwest 446 513 34,000  Level Los Angeles Center
11:28PM 35.3981 -114.1011 243° Southwest 447 514 34,000  Level Los Angeles Center
11:29PM 35.3414 -114.2392 243° Southwest 451 519 34,000  Level Los Angeles Center
11:30PM 35.2864 -114.3736 243° Southwest 444 511 34,000  Level Los Angeles Center
11:31PM 35.2292 -114.5097 243° Southwest 447 514 34,000  Level Los Angeles Center
11:32PM 35.1717 -114.6492 243° Southwest 455 524 34,000  Level Los Angeles Center
11:33PM 35.1150 -114.7844 243° Southwest 449 517 34,000  Level Los Angeles Center
11:34PM 35.0581 -114.9194 243° Southwest 446 513 34,000  Level Los Angeles Center
11:35PM 34.9906 -115.0794 243° Southwest 442 509 34,000 -120 Level Los Angeles Center
11:36PM 34.9347 -115.2108 243° Southwest 437 503 33,800 -1,200 Descending Los Angeles Center
11:37PM 34.8819 -115.3389 243° Southwest 425 489 31,600 -2,100 Descending Los Angeles Center
11:38PM 34.8283 -115.4650 243° Southwest 419 482 29,500 -1,980 Descending Los Angeles Center
11:39PM 34.7750 -115.5886 242° Southwest 404 465 27,600 -1,260 Descending Los Angeles Center
11:40PM 34.7242 -115.7044 242° Southwest 390 449 27,000 -300 Descending Los Angeles Center
11:42PM 34.6742 -115.8206 242° Southwest 389 448 27,000  Level Los Angeles Center
11:43PM 34.6236 -115.9381 242° Southwest 391 450 27,000  Level Los Angeles Center
11:44PM 34.5719 -116.0531 241° Southwest 390 449 27,000  Level Los Angeles Center
11:45PM 34.5211 -116.1669 242° Southwest 388 447 27,000  Level Los Angeles Center
11:46PM 34.4631 -116.3025 243° Southwest 384 442 27,000  Level Los Angeles Center
11:47PM 34.4131 -116.4181 242° Southwest 383 441 27,000 -660 Level Los Angeles Center
11:48PM 34.3592 -116.5428 242° Southwest 398 458 25,700 -1,740 Descending Los Angeles Center
11:49PM 34.3064 -116.6636 242° Southwest 405 466 23,500 -2,100 Descending Los Angeles Center
11:50PM 34.2533 -116.7819 242° Southwest 401 461 21,500 -1,920 Descending Los Angeles Center
11:51PM 34.2025 -116.8944 241° Southwest 387 445 19,600 -1,440 Descending Los Angeles Center
11:52PM 34.1531 -117.0061 242° Southwest 379 436 18,600 -1,020 Descending Los Angeles Center
11:53PM 34.0944 -117.1389 242° Southwest 382 440 17,600 -1,320 Descending Los Angeles Center
11:54PM 34.0467 -117.2444 241° Southwest 369 425 15,900 -1,860 Descending Los Angeles Center
11:55PM 34.0361 -117.3619 264° West 357 411 13,900 -1,920 Descending Los Angeles Center
11:56PM 34.0278 -117.4769 265° West 348 400 12,000 -1,620 Descending Los Angeles Center
11:57PM 34.0344 -117.5872 274° West 335 386 10,600 -1,020 Descending Los Angeles Center
11:58PM 34.0167 -117.7000 259° West 285 328 9,900 -1,020 Descending Southern California TRACON
11:59PM 34.0167 -117.8000 270° West 282 325 8,700 -1,320 Descending Southern California TRACON
12:00AM 34.0000 -117.9000 259° West 277 319 7,300 -1,200 Descending Southern California TRACON
12:01AM 34.0000 -117.9833 270° West 265 305 6,300 -1,080 Descending Southern California TRACON
12:02AM 33.9833 -118.0667 256° West 256 295 5,200 -1,020 Descending Southern California TRACON
12:03AM 33.9833 -118.1500 270° West 236 272 4,300 -1,140 Descending Southern California TRACON
12:04AM 33.9667 -118.2333 256° West 205 236 3,000 -1,140 Descending Southern California TRACON
12:05AM 33.9667 -118.3000 270° West 177 204 2,000 -900 Descending Southern California TRACON
12:06AM 33.9667 -118.3333 270° West 158 182 1,200 -840 Descending Southern California TRACON
12:07AM 33.9500 -118.3833 248° West 141 162 500 -480 Descending Southern California TRACON
12:08AM 33.9494 -118.4392 269° West 153 176 200 -300 Descending Los Angeles Center
12:10AM 33.9425 -118.4081 259° West  Level Estimated